createdAt,value
2023-08-05T00:00:52.366Z,22.10
2023-08-05T00:03:22.215Z,22.10
2023-08-05T00:05:50.662Z,22.10
2023-08-05T00:08:19.153Z,22.07
2023-08-05T00:10:48.428Z,22.04
2023-08-05T00:13:16.948Z,22.04
2023-08-05T00:15:45.887Z,22.02
2023-08-05T00:18:14.416Z,22.03
2023-08-05T00:20:44.470Z,22.02
2023-08-05T00:23:12.963Z,22.03
2023-08-05T00:25:41.473Z,22.02
2023-08-05T00:28:09.923Z,22.01
2023-08-05T00:30:38.442Z,21.99
2023-08-05T00:33:06.940Z,21.98
2023-08-05T00:35:35.364Z,21.98
2023-08-05T00:38:05.307Z,21.97
2023-08-05T00:40:33.824Z,21.95
2023-08-05T00:43:03.967Z,21.95
2023-08-05T00:45:33.191Z,21.96
2023-08-05T00:48:01.801Z,21.96
2023-08-05T00:50:33.604Z,21.94
2023-08-05T00:53:03.122Z,21.93
2023-08-05T00:55:33.465Z,21.91
2023-08-05T00:58:02.018Z,21.90
2023-08-05T01:00:30.554Z,21.88
2023-08-05T01:02:58.995Z,21.86
2023-08-05T01:05:27.869Z,21.85
2023-08-05T01:07:57.560Z,21.84
2023-08-05T01:10:26.010Z,21.85
2023-08-05T01:12:56.024Z,21.88
2023-08-05T01:15:24.706Z,21.93
2023-08-05T01:17:57.213Z,21.96
2023-08-05T01:20:32.973Z,21.99
2023-08-05T01:23:09.412Z,22.01
2023-08-05T01:25:40.229Z,22.04
2023-08-05T01:28:11.023Z,22.06
2023-08-05T01:30:42.337Z,22.08
2023-08-05T01:33:12.138Z,22.09
2023-08-05T01:35:40.643Z,22.10
2023-08-05T01:38:09.123Z,22.11
2023-08-05T01:40:39.007Z,22.11
2023-08-05T01:43:08.807Z,22.10
2023-08-05T01:45:37.492Z,22.09
2023-08-05T01:48:06.867Z,22.12
2023-08-05T01:50:36.392Z,22.12
2023-08-05T01:53:04.898Z,22.13
2023-08-05T01:55:33.395Z,22.16
2023-08-05T01:58:03.230Z,22.19
2023-08-05T02:00:31.955Z,22.22
2023-08-05T02:03:00.498Z,22.25
2023-08-05T02:05:29.345Z,22.30
2023-08-05T02:07:57.782Z,22.37
2023-08-05T02:10:26.269Z,22.44
2023-08-05T02:12:54.815Z,22.49
2023-08-05T02:15:24.777Z,22.52
2023-08-05T02:17:53.328Z,22.52
2023-08-05T02:20:22.030Z,22.50
2023-08-05T02:22:50.547Z,22.46
2023-08-05T02:25:19.158Z,22.43
2023-08-05T02:27:49.976Z,22.41
2023-08-05T02:30:19.339Z,22.37
2023-08-05T02:32:49.313Z,22.32
2023-08-05T02:35:18.090Z,22.29
2023-08-05T02:37:46.598Z,22.24
2023-08-05T02:40:15.669Z,22.22
2023-08-05T02:42:47.116Z,22.18
2023-08-05T02:45:15.797Z,22.13
2023-08-05T02:47:44.295Z,22.11
2023-08-05T02:50:14.192Z,22.06
2023-08-05T02:52:42.765Z,22.04
2023-08-05T02:55:11.314Z,22.01
2023-08-05T02:57:39.828Z,22.00
2023-08-05T03:00:10.754Z,22.00
2023-08-05T03:02:39.383Z,22.01
2023-08-05T03:05:09.087Z,22.04
2023-08-05T03:07:38.910Z,22.07
2023-08-05T03:10:09.211Z,22.09
2023-08-05T03:12:37.820Z,22.11
2023-08-05T03:15:08.177Z,22.12
2023-08-05T03:17:37.757Z,22.10
2023-08-05T03:20:08.585Z,22.10
2023-08-05T03:22:38.467Z,22.10
2023-08-05T03:25:08.613Z,22.11
2023-08-05T03:27:37.235Z,22.12
2023-08-05T03:30:07.493Z,22.14
2023-08-05T03:32:36.051Z,22.16
2023-08-05T03:35:05.031Z,22.15
2023-08-05T03:37:33.554Z,22.17
2023-08-05T03:40:03.576Z,22.18
2023-08-05T03:42:32.076Z,22.21
2023-08-05T03:45:00.965Z,22.22
2023-08-05T03:47:29.846Z,22.25
2023-08-05T03:49:58.670Z,22.28
2023-08-05T03:52:29.045Z,22.30
2023-08-05T03:54:57.603Z,22.33
2023-08-05T03:57:27.475Z,22.35
2023-08-05T03:59:56.410Z,22.40
2023-08-05T04:02:24.987Z,22.43
2023-08-05T04:04:53.427Z,22.43
2023-08-05T04:07:24.046Z,22.45
2023-08-05T04:09:54.583Z,22.46
2023-08-05T04:12:23.097Z,22.48
2023-08-05T04:14:53.444Z,22.47
2023-08-05T04:17:23.021Z,22.49
2023-08-05T04:19:51.684Z,22.49
2023-08-05T04:22:22.611Z,22.52
2023-08-05T04:24:51.595Z,22.54
2023-08-05T04:27:20.182Z,22.57
2023-08-05T04:29:48.655Z,22.60
2023-08-05T04:32:18.604Z,22.62
2023-08-05T04:34:47.624Z,22.64
2023-08-05T04:37:20.681Z,22.63
2023-08-05T04:39:50.058Z,22.65
2023-08-05T04:42:19.504Z,22.66
2023-08-05T04:44:48.033Z,22.66
2023-08-05T04:47:17.869Z,22.69
2023-08-05T04:49:47.030Z,22.72
2023-08-05T04:52:15.930Z,22.73
2023-08-05T04:54:46.278Z,22.70
2023-08-05T04:57:15.293Z,22.67
2023-08-05T04:59:43.776Z,22.61
2023-08-05T05:02:12.355Z,22.55
2023-08-05T05:04:42.221Z,22.47
2023-08-05T05:07:10.739Z,22.40
2023-08-05T05:09:39.326Z,22.31
2023-08-05T05:12:08.753Z,22.22
2023-08-05T05:14:37.371Z,22.15
2023-08-05T05:17:06.246Z,22.09
2023-08-05T05:19:34.696Z,22.01
2023-08-05T05:22:04.693Z,21.96
2023-08-05T05:24:33.253Z,21.91
2023-08-05T05:27:01.860Z,21.87
2023-08-05T05:29:31.816Z,21.83
2023-08-05T05:32:00.348Z,21.81
2023-08-05T05:34:28.896Z,21.78
2023-08-05T05:36:57.357Z,21.76
2023-08-05T05:39:27.362Z,21.75
2023-08-05T05:41:56.282Z,21.74
2023-08-05T05:44:24.983Z,21.73
2023-08-05T05:46:53.614Z,21.74
2023-08-05T05:49:22.413Z,21.74
2023-08-05T05:51:50.959Z,21.75
2023-08-05T05:54:19.501Z,21.75
2023-08-05T05:56:49.541Z,21.76
2023-08-05T05:59:18.304Z,21.78
2023-08-05T06:01:46.753Z,21.80
2023-08-05T06:04:15.386Z,21.83
2023-08-05T06:06:43.996Z,21.84
2023-08-05T06:09:12.565Z,21.89
2023-08-05T06:11:41.089Z,21.93
2023-08-05T06:14:11.003Z,21.93
2023-08-05T06:16:39.512Z,21.95
2023-08-05T06:19:08.376Z,21.98
2023-08-05T06:21:36.888Z,22.00
2023-08-05T06:24:05.764Z,22.04
2023-08-05T06:26:34.906Z,22.05
2023-08-05T06:29:03.390Z,22.07
2023-08-05T06:31:33.373Z,22.06
2023-08-05T06:34:01.869Z,22.06
2023-08-05T06:36:30.333Z,22.06
2023-08-05T06:38:58.961Z,22.05
2023-08-05T06:41:27.434Z,22.04
2023-08-05T06:43:56.030Z,22.05
2023-08-05T06:46:24.602Z,22.04
2023-08-05T06:48:54.522Z,22.04
2023-08-05T06:51:23.078Z,22.05
2023-08-05T06:53:51.627Z,22.03
2023-08-05T06:56:20.132Z,22.03
2023-08-05T06:58:49.203Z,22.03
2023-08-05T07:01:18.101Z,22.02
2023-08-05T07:03:46.622Z,22.02
2023-08-05T07:06:16.520Z,22.02
2023-08-05T07:08:45.058Z,22.01
2023-08-05T07:11:13.553Z,22.00
2023-08-05T07:13:42.061Z,21.98
2023-08-05T07:16:10.573Z,22.00
2023-08-05T07:18:39.088Z,22.04
2023-08-05T07:21:07.546Z,22.11
2023-08-05T07:23:37.410Z,22.14
2023-08-05T07:26:05.928Z,22.17
2023-08-05T07:28:34.489Z,22.22
2023-08-05T07:31:08.384Z,22.22
2023-08-05T07:33:37.115Z,22.27
2023-08-05T07:36:13.009Z,22.30
2023-08-05T07:38:44.948Z,22.38
2023-08-05T07:41:14.920Z,22.44
2023-08-05T07:43:43.810Z,22.51
2023-08-05T07:46:15.092Z,22.56
2023-08-05T07:48:47.072Z,22.62
2023-08-05T07:51:15.771Z,22.68
2023-08-05T07:53:45.623Z,22.72
2023-08-05T07:56:15.151Z,22.78
2023-08-05T07:58:47.341Z,22.83
2023-08-05T08:01:21.031Z,22.85
2023-08-05T08:03:52.493Z,22.89
2023-08-05T08:06:22.625Z,22.91
2023-08-05T08:08:52.929Z,22.95
2023-08-05T08:11:21.653Z,22.96
2023-08-05T08:13:50.138Z,22.96
2023-08-05T08:16:19.676Z,22.97
2023-08-05T08:18:48.195Z,22.99
2023-08-05T08:21:16.692Z,23.03
2023-08-05T08:23:45.207Z,23.07
2023-08-05T08:26:15.015Z,23.07
2023-08-05T08:28:43.512Z,23.09
2023-08-05T08:31:12.051Z,23.15
2023-08-05T08:33:40.557Z,23.19
2023-08-05T08:36:09.161Z,23.23
2023-08-05T08:38:37.624Z,23.25
2023-08-05T08:41:06.098Z,23.25
2023-08-05T08:43:36.880Z,23.23
2023-08-05T08:46:08.940Z,23.22
2023-08-05T08:48:38.570Z,23.21
2023-08-05T08:51:08.051Z,23.18
2023-08-05T08:53:37.057Z,23.17
2023-08-05T08:56:06.022Z,23.16
2023-08-05T08:58:36.568Z,23.14
2023-08-05T09:01:07.111Z,23.14
2023-08-05T09:03:37.115Z,23.14
2023-08-05T09:06:06.084Z,23.12
2023-08-05T09:08:36.577Z,23.08
2023-08-05T09:11:05.427Z,23.02
2023-08-05T09:13:35.274Z,22.93
2023-08-05T09:16:03.980Z,22.87
2023-08-05T09:18:33.363Z,22.80
2023-08-05T09:21:03.235Z,22.77
2023-08-05T09:23:31.885Z,22.75
2023-08-05T09:26:00.375Z,22.72
2023-08-05T09:28:33.066Z,22.68
2023-08-05T09:31:19.101Z,22.64
2023-08-05T09:33:47.601Z,22.65
2023-08-05T09:36:17.109Z,22.60
2023-08-05T09:38:47.275Z,22.57
2023-08-05T09:41:16.109Z,22.53
2023-08-05T09:43:46.845Z,22.49
2023-08-05T09:46:19.823Z,22.46
2023-08-05T09:48:48.664Z,22.45
2023-08-05T09:51:18.706Z,22.42
2023-08-05T09:53:53.347Z,22.42
2023-08-05T09:56:22.503Z,22.45
2023-08-05T09:58:52.173Z,22.47
2023-08-05T10:01:22.749Z,22.48
2023-08-05T10:03:51.870Z,22.44
2023-08-05T10:06:21.546Z,22.37
2023-08-05T10:08:50.545Z,22.31
2023-08-05T10:11:20.510Z,22.29
2023-08-05T10:13:53.845Z,22.30
2023-08-05T10:16:24.692Z,22.30
2023-08-05T10:18:53.739Z,22.27
2023-08-05T10:21:46.660Z,22.20
2023-08-05T10:24:15.180Z,22.18
2023-08-05T10:26:47.828Z,22.10
2023-08-05T10:29:29.638Z,22.04
2023-08-05T10:32:17.594Z,22.00
2023-08-05T10:35:06.240Z,22.02
2023-08-05T10:37:50.345Z,22.02
2023-08-05T10:40:40.376Z,22.05
2023-08-05T10:43:10.068Z,22.14
2023-08-05T10:45:45.009Z,22.15
2023-08-05T10:48:15.785Z,22.18
2023-08-05T10:50:44.316Z,22.19
2023-08-05T10:53:14.780Z,22.21
2023-08-05T10:55:50.958Z,22.20
2023-08-05T10:58:25.800Z,22.20
2023-08-05T11:01:02.626Z,22.18
2023-08-05T11:03:43.595Z,22.18
2023-08-05T11:06:13.565Z,22.21
2023-08-05T11:08:43.631Z,22.23
2023-08-05T11:11:15.300Z,22.25
2023-08-05T11:13:45.829Z,22.24
2023-08-05T11:16:15.914Z,22.20
2023-08-05T11:18:47.664Z,22.16
2023-08-05T11:21:19.059Z,22.16
2023-08-05T11:23:47.755Z,22.13
2023-08-05T11:26:16.542Z,22.11
2023-08-05T11:28:46.293Z,22.10
2023-08-05T11:31:24.529Z,22.09
2023-08-05T11:33:55.397Z,22.11
2023-08-05T11:36:27.566Z,22.10
2023-08-05T11:38:59.154Z,22.10
2023-08-05T11:41:29.006Z,22.06
2023-08-05T11:43:57.872Z,22.03
2023-08-05T11:46:27.386Z,22.00
2023-08-05T11:49:11.654Z,21.95
2023-08-05T11:51:51.796Z,21.94
2023-08-05T11:54:29.671Z,21.94
2023-08-05T11:56:58.980Z,21.95
2023-08-05T11:59:41.889Z,21.89
2023-08-05T12:02:11.396Z,21.88
2023-08-05T12:04:49.017Z,21.88
2023-08-05T12:07:19.613Z,21.91
2023-08-05T12:10:03.670Z,21.96
2023-08-05T12:12:32.254Z,21.99
2023-08-05T12:15:14.454Z,21.99
2023-08-05T12:17:49.473Z,22.04
2023-08-05T12:20:21.507Z,22.10
2023-08-05T12:22:52.604Z,22.13
2023-08-05T12:25:23.672Z,22.12
2023-08-05T12:27:52.173Z,22.10
2023-08-05T12:30:21.396Z,22.10
2023-08-05T12:32:50.012Z,22.12
2023-08-05T12:35:20.026Z,22.11
2023-08-05T12:37:48.604Z,22.13
2023-08-05T12:40:17.139Z,22.13
2023-08-05T12:42:45.593Z,22.14
2023-08-05T12:45:14.185Z,22.13
2023-08-05T12:47:42.758Z,22.11
2023-08-05T12:50:12.182Z,22.10
2023-08-05T12:52:42.042Z,22.09
2023-08-05T12:55:11.296Z,22.09
2023-08-05T12:57:39.934Z,22.09
2023-08-05T13:00:11.674Z,22.06
2023-08-05T13:02:40.130Z,22.07
2023-08-05T13:05:09.530Z,22.07
2023-08-05T13:07:38.016Z,22.05
2023-08-05T13:10:09.646Z,22.07
2023-08-05T13:12:38.703Z,22.15
2023-08-05T13:15:09.052Z,22.20
2023-08-05T13:17:37.494Z,22.23
2023-08-05T13:20:08.088Z,22.22
2023-08-05T13:22:36.584Z,22.27
2023-08-05T13:25:05.518Z,22.28
2023-08-05T13:27:35.607Z,22.29
2023-08-05T13:30:04.108Z,22.29
2023-08-05T13:32:32.683Z,22.29
2023-08-05T13:35:01.200Z,22.28
2023-08-05T13:37:29.679Z,22.25
2023-08-05T13:39:58.371Z,22.22
2023-08-05T13:42:26.969Z,22.20
2023-08-05T13:44:57.158Z,22.19
2023-08-05T13:47:25.948Z,22.20
2023-08-05T13:49:55.290Z,22.21
2023-08-05T13:52:24.434Z,22.21
2023-08-05T13:54:53.279Z,22.21
2023-08-05T13:57:22.067Z,22.20
2023-08-05T13:59:50.657Z,22.23
2023-08-05T14:02:20.850Z,22.28
2023-08-05T14:04:49.739Z,22.31
2023-08-05T14:07:18.186Z,22.33
2023-08-05T14:09:46.814Z,22.37
2023-08-05T14:12:15.248Z,22.40
2023-08-05T14:14:43.747Z,22.40
2023-08-05T14:17:12.189Z,22.43
2023-08-05T14:19:42.088Z,22.44
2023-08-05T14:22:10.547Z,22.46
2023-08-05T14:24:39.026Z,22.47
2023-08-05T14:27:07.884Z,22.48
2023-08-05T14:29:36.342Z,22.47
2023-08-05T14:32:05.186Z,22.47
2023-08-05T14:34:33.865Z,22.47
2023-08-05T14:37:03.721Z,22.49
2023-08-05T14:39:32.166Z,22.49
2023-08-05T14:42:00.748Z,22.49
2023-08-05T14:44:29.493Z,22.50
2023-08-05T14:46:57.929Z,22.51
2023-08-05T14:49:26.441Z,22.53
2023-08-05T14:51:54.914Z,22.53
2023-08-05T14:54:24.766Z,22.54
2023-08-05T14:56:53.218Z,22.54
2023-08-05T14:59:21.918Z,22.55
2023-08-05T15:01:50.713Z,22.55
2023-08-05T15:04:19.509Z,22.54
2023-08-05T15:06:48.979Z,22.55
2023-08-05T15:09:17.548Z,22.56
2023-08-05T15:11:47.341Z,22.56
2023-08-05T15:14:17.179Z,22.58
2023-08-05T15:16:45.756Z,22.58
2023-08-05T15:19:14.210Z,22.60
2023-08-05T15:21:42.730Z,22.60
2023-08-05T15:24:11.256Z,22.61
2023-08-05T15:26:39.751Z,22.63
2023-08-05T15:29:09.828Z,22.62
2023-08-05T15:31:38.415Z,22.64
2023-08-05T15:34:06.954Z,22.64
2023-08-05T15:36:35.891Z,22.64
2023-08-05T15:39:04.901Z,22.62
2023-08-05T15:41:33.504Z,22.63
2023-08-05T15:44:02.858Z,22.64
2023-08-05T15:46:33.339Z,22.61
2023-08-05T15:49:02.729Z,22.62
2023-08-05T15:51:31.485Z,22.60
2023-08-05T15:54:00.687Z,22.61
2023-08-05T15:56:31.352Z,22.59
2023-08-05T15:59:00.076Z,22.56
2023-08-05T16:01:29.592Z,22.54
2023-08-05T16:04:00.386Z,22.54
2023-08-05T16:06:30.057Z,22.56
2023-08-05T16:08:59.436Z,22.55
2023-08-05T16:11:32.409Z,22.55
2023-08-05T16:14:01.745Z,22.53
2023-08-05T16:16:32.118Z,22.52
2023-08-05T16:19:02.761Z,22.52
2023-08-05T16:21:32.724Z,22.53
2023-08-05T16:24:02.586Z,22.54
2023-08-05T16:26:32.102Z,22.55
2023-08-05T16:29:01.710Z,22.53
2023-08-05T16:31:31.512Z,22.53
2023-08-05T16:34:01.787Z,22.50
2023-08-05T16:36:30.955Z,22.50
2023-08-05T16:39:01.065Z,22.49
2023-08-05T16:41:31.259Z,22.48
2023-08-05T16:44:03.865Z,22.48
2023-08-05T16:46:46.745Z,22.46
2023-08-05T16:49:20.192Z,22.44
2023-08-05T16:51:50.814Z,22.42
2023-08-05T16:54:20.834Z,22.40
2023-08-05T16:56:50.282Z,22.41
2023-08-05T16:59:19.391Z,22.38
2023-08-05T17:01:50.458Z,22.40
2023-08-05T17:04:21.331Z,22.38
2023-08-05T17:06:50.524Z,22.38
2023-08-05T17:09:22.520Z,22.35
2023-08-05T17:11:52.134Z,22.34
2023-08-05T17:14:21.415Z,22.31
2023-08-05T17:16:51.981Z,22.29
2023-08-05T17:19:24.136Z,22.28
2023-08-05T17:21:55.054Z,22.28
2023-08-05T17:24:23.731Z,22.29
2023-08-05T17:26:53.316Z,22.28
2023-08-05T17:29:22.673Z,22.30
2023-08-05T17:31:52.268Z,22.29
2023-08-05T17:34:24.232Z,22.30
2023-08-05T17:36:54.297Z,22.32
2023-08-05T17:39:25.394Z,22.30
2023-08-05T17:41:54.447Z,22.29
2023-08-05T17:44:23.560Z,22.27
2023-08-05T17:46:53.928Z,22.24
2023-08-05T17:49:25.497Z,22.20
2023-08-05T17:51:54.607Z,22.16
2023-08-05T17:54:23.719Z,22.13
2023-08-05T17:56:54.142Z,22.08
2023-08-05T17:59:25.523Z,22.04
2023-08-05T18:01:54.792Z,21.99
2023-08-05T18:04:26.896Z,21.93
2023-08-05T18:06:56.832Z,21.89
2023-08-05T18:09:27.366Z,21.86
2023-08-05T18:11:56.810Z,21.82
2023-08-05T18:14:25.907Z,21.79
2023-08-05T18:16:55.956Z,21.75
2023-08-05T18:19:26.823Z,21.73
2023-08-05T18:21:55.388Z,21.72
2023-08-05T18:24:24.831Z,21.69
2023-08-05T18:26:54.326Z,21.69
2023-08-05T18:29:24.201Z,21.67
2023-08-05T18:31:53.401Z,21.66
2023-08-05T18:34:23.092Z,21.66
2023-08-05T18:36:53.739Z,21.65
2023-08-05T18:39:24.178Z,21.66
2023-08-05T18:41:54.864Z,21.64
2023-08-05T18:44:24.142Z,21.64
2023-08-05T18:46:52.726Z,21.61
2023-08-05T18:49:22.016Z,21.62
2023-08-05T18:51:53.541Z,21.58
2023-08-05T18:54:23.416Z,21.57
2023-08-05T18:56:52.318Z,21.55
2023-08-05T18:59:21.993Z,21.55
2023-08-05T19:01:52.132Z,21.54
2023-08-05T19:04:22.402Z,21.53
2023-08-05T19:06:53.222Z,21.54
2023-08-05T19:09:21.786Z,21.51
2023-08-05T19:11:52.047Z,21.51
2023-08-05T19:14:23.450Z,21.51
2023-08-05T19:16:52.542Z,21.50
2023-08-05T19:19:22.063Z,21.50
2023-08-05T19:21:52.698Z,21.49
2023-08-05T19:24:22.479Z,21.48
2023-08-05T19:26:51.736Z,21.48
2023-08-05T19:29:20.727Z,21.46
2023-08-05T19:31:51.837Z,21.45
2023-08-05T19:34:22.414Z,21.46
2023-08-05T19:36:52.342Z,21.45
2023-08-05T19:39:22.956Z,21.44
2023-08-05T19:41:52.305Z,21.44
2023-08-05T19:44:21.505Z,21.45
2023-08-05T19:46:52.155Z,21.46
2023-08-05T19:49:21.177Z,21.50
2023-08-05T19:51:50.920Z,21.52
2023-08-05T19:54:21.683Z,21.54
2023-08-05T19:56:51.589Z,21.57
2023-08-05T19:59:21.756Z,21.60
2023-08-05T20:01:51.491Z,21.62
2023-08-05T20:04:20.292Z,21.64
2023-08-05T20:06:50.164Z,21.66
2023-08-05T20:09:20.829Z,21.66
2023-08-05T20:11:52.980Z,21.68
2023-08-05T20:14:22.871Z,21.68
2023-08-05T20:16:52.737Z,21.71
2023-08-05T20:19:22.191Z,21.70
2023-08-05T20:21:51.588Z,21.71
2023-08-05T20:24:21.848Z,21.72
2023-08-05T20:26:51.486Z,21.73
2023-08-05T20:29:21.064Z,21.76
2023-08-05T20:31:52.376Z,21.79
2023-08-05T20:34:22.814Z,21.80
2023-08-05T20:36:52.416Z,21.82
2023-08-05T20:39:23.530Z,21.81
2023-08-05T20:41:52.676Z,21.81
2023-08-05T20:44:21.614Z,21.79
2023-08-05T20:46:50.297Z,21.78
2023-08-05T20:49:19.130Z,21.76
2023-08-05T20:51:47.861Z,21.74
2023-08-05T20:54:16.730Z,21.73
2023-08-05T20:56:46.868Z,21.71
2023-08-05T20:59:16.391Z,21.71
2023-08-05T21:01:45.080Z,21.68
2023-08-05T21:04:13.594Z,21.67
2023-08-05T21:06:42.101Z,21.67
2023-08-05T21:09:10.627Z,21.68
2023-08-05T21:11:40.060Z,21.69
2023-08-05T21:14:10.052Z,21.71
2023-08-05T21:16:38.645Z,21.74
2023-08-05T21:19:07.192Z,21.77
2023-08-05T21:21:35.631Z,21.79
2023-08-05T21:24:04.207Z,21.81
2023-08-05T21:26:32.701Z,21.83
2023-08-05T21:29:01.191Z,21.83
2023-08-05T21:31:31.527Z,21.84
2023-08-05T21:34:00.006Z,21.87
2023-08-05T21:36:28.557Z,21.88
2023-08-05T21:38:57.043Z,21.88
2023-08-05T21:41:25.604Z,21.91
2023-08-05T21:43:54.176Z,21.94
2023-08-05T21:46:22.744Z,21.95
2023-08-05T21:48:52.556Z,21.97
2023-08-05T21:51:21.081Z,21.98
2023-08-05T21:53:49.553Z,21.98
2023-08-05T21:56:18.148Z,22.00
2023-08-05T21:58:46.693Z,22.01
2023-08-05T22:01:15.226Z,22.02
2023-08-05T22:03:43.906Z,22.02
2023-08-05T22:06:13.821Z,22.02
2023-08-05T22:08:42.244Z,22.03
2023-08-05T22:11:11.767Z,22.01
2023-08-05T22:13:40.261Z,22.01
2023-08-05T22:16:09.591Z,22.02
2023-08-05T22:18:38.269Z,22.03
2023-08-05T22:21:06.888Z,22.02
2023-08-05T22:23:36.792Z,22.02
2023-08-05T22:26:08.701Z,22.00
2023-08-05T22:28:37.499Z,21.99
2023-08-05T22:31:06.251Z,21.98
2023-08-05T22:33:34.915Z,21.96
2023-08-05T22:36:11.556Z,21.91
2023-08-05T22:38:41.595Z,21.91
2023-08-05T22:41:10.057Z,21.91
2023-08-05T22:43:38.554Z,21.90
2023-08-05T22:46:07.101Z,21.89
2023-08-05T22:48:35.723Z,21.87
2023-08-05T22:51:04.451Z,21.86
2023-08-05T22:53:32.966Z,21.84
2023-08-05T22:56:04.985Z,21.81
2023-08-05T22:58:33.480Z,21.79
2023-08-05T23:01:03.531Z,21.77
2023-08-05T23:03:32.414Z,21.78
2023-08-05T23:06:00.940Z,21.78
2023-08-05T23:08:29.414Z,21.78
2023-08-05T23:10:57.892Z,21.77
2023-08-05T23:13:28.277Z,21.74
2023-08-05T23:15:56.800Z,21.73
2023-08-05T23:18:25.303Z,21.73
2023-08-05T23:20:54.063Z,21.71
2023-08-05T23:23:22.519Z,21.71
2023-08-05T23:25:51.035Z,21.68
2023-08-05T23:28:19.599Z,21.68
2023-08-05T23:30:49.590Z,21.65
2023-08-05T23:33:18.083Z,21.65
2023-08-05T23:35:46.687Z,21.65
2023-08-05T23:38:15.208Z,21.65
2023-08-05T23:40:43.811Z,21.63
2023-08-05T23:43:12.442Z,21.64
2023-08-05T23:45:44.535Z,21.65
2023-08-05T23:48:14.500Z,21.65
2023-08-05T23:50:43.376Z,21.63
2023-08-05T23:53:12.096Z,21.62
2023-08-05T23:55:45.948Z,21.59
2023-08-05T23:58:14.556Z,21.58
